createdAt,value
2018-11-10T00:00:40.698Z,5.53
2018-11-10T00:03:09.228Z,5.57
2018-11-10T00:05:37.697Z,5.50
2018-11-10T00:08:06.237Z,6.10
2018-11-10T00:10:34.702Z,5.73
2018-11-10T00:13:03.194Z,5.53
2018-11-10T00:15:31.698Z,5.57
2018-11-10T00:18:00.186Z,5.03
2018-11-10T00:20:28.674Z,5.23
2018-11-10T00:22:57.161Z,5.10
2018-11-10T00:25:25.655Z,4.67
2018-11-10T00:27:54.174Z,5.00
2018-11-10T00:30:22.964Z,4.47
2018-11-10T00:32:51.461Z,4.97
2018-11-10T00:35:19.941Z,5.20
2018-11-10T00:37:48.450Z,5.20
2018-11-10T00:40:17.381Z,4.83
2018-11-10T00:42:46.257Z,4.13
2018-11-10T00:45:14.759Z,4.80
2018-11-10T00:47:43.242Z,4.63
2018-11-10T00:50:11.756Z,4.20
2018-11-10T00:52:40.730Z,4.53
2018-11-10T00:55:09.395Z,4.03
2018-11-10T00:57:37.882Z,4.10
2018-11-10T01:00:06.786Z,3.87
2018-11-10T01:02:35.306Z,4.07
2018-11-10T01:05:03.822Z,4.17
2018-11-10T01:07:32.510Z,4.03
2018-11-10T01:10:00.994Z,3.77
2018-11-10T01:12:29.481Z,3.63
2018-11-10T01:14:58.108Z,3.83
2018-11-10T01:17:26.621Z,3.80
2018-11-10T01:19:55.106Z,3.40
2018-11-10T01:22:23.597Z,3.50
2018-11-10T01:24:52.069Z,3.70
2018-11-10T01:27:20.565Z,3.70
2018-11-10T01:29:49.362Z,3.47
2018-11-10T01:32:17.854Z,3.63
2018-11-10T01:34:46.342Z,3.60
2018-11-10T01:37:14.824Z,3.53
2018-11-10T01:39:43.325Z,3.43
2018-11-10T01:42:11.837Z,3.77
2018-11-10T01:44:41.239Z,3.40
2018-11-10T01:47:09.717Z,3.10
2018-11-10T01:49:38.202Z,3.20
2018-11-10T01:52:06.706Z,3.17
2018-11-10T01:54:35.218Z,3.17
2018-11-10T01:57:03.746Z,3.20
2018-11-10T01:59:32.237Z,2.70
2018-11-10T02:02:00.735Z,3.10
2018-11-10T02:04:30.289Z,3.20
2018-11-10T02:06:58.806Z,3.07
2018-11-10T02:09:27.286Z,3.20
2018-11-10T02:11:55.784Z,2.70
2018-11-10T02:14:24.278Z,2.90
2018-11-10T02:16:52.773Z,2.90
2018-11-10T02:19:21.269Z,3.03
2018-11-10T02:21:50.058Z,3.00
2018-11-10T02:24:18.530Z,3.30
2018-11-10T02:26:47.017Z,2.67
2018-11-10T02:29:15.549Z,2.97
2018-11-10T02:31:44.074Z,2.73
2018-11-10T02:34:12.565Z,3.10
2018-11-10T02:36:41.056Z,3.27
2018-11-10T02:39:10.265Z,3.00
2018-11-10T02:41:38.752Z,2.90
2018-11-10T02:44:07.250Z,3.17
2018-11-10T02:46:35.751Z,3.00
2018-11-10T02:49:04.226Z,2.60
2018-11-10T02:51:32.720Z,2.80
2018-11-10T02:54:01.246Z,2.97
2018-11-10T02:56:30.119Z,3.17
2018-11-10T02:58:59.136Z,3.03
2018-11-10T03:01:27.642Z,3.33
2018-11-10T03:03:56.121Z,3.27
2018-11-10T03:06:24.605Z,3.50
2018-11-10T03:08:53.168Z,3.23
2018-11-10T03:11:21.660Z,3.17
2018-11-10T03:13:50.149Z,3.30
2018-11-10T03:16:18.637Z,2.70
2018-11-10T03:18:47.162Z,3.03
2018-11-10T03:21:15.666Z,3.17
2018-11-10T03:23:44.149Z,2.90
2018-11-10T03:26:12.647Z,2.83
2018-11-10T03:28:41.130Z,3.17
2018-11-10T03:31:09.637Z,3.20
2018-11-10T03:33:38.394Z,3.00
2018-11-10T03:36:07.278Z,3.00
2018-11-10T03:38:36.473Z,3.10
2018-11-10T03:41:05.184Z,2.80
2018-11-10T03:43:33.669Z,3.10
2018-11-10T03:46:02.193Z,3.10
2018-11-10T03:48:31.097Z,3.20
2018-11-10T03:50:59.585Z,3.70
2018-11-10T03:53:28.250Z,3.47
2018-11-10T03:55:56.745Z,3.23
2018-11-10T03:58:25.239Z,3.10
2018-11-10T04:00:53.718Z,3.57
2018-11-10T04:03:22.195Z,3.43
2018-11-10T04:05:50.676Z,3.37
2018-11-10T04:08:19.181Z,3.40
2018-11-10T04:10:51.934Z,3.40
2018-11-10T04:13:20.422Z,3.47
2018-11-10T04:15:48.925Z,3.27
2018-11-10T04:18:17.417Z,3.43
2018-11-10T04:20:45.910Z,3.40
2018-11-10T04:23:14.401Z,3.33
2018-11-10T04:25:42.909Z,3.60
2018-11-10T04:28:11.398Z,3.40
2018-11-10T04:30:39.882Z,3.33
2018-11-10T04:33:08.381Z,3.20
2018-11-10T04:35:36.873Z,3.40
2018-11-10T04:38:05.379Z,3.20
2018-11-10T04:40:33.864Z,3.37
2018-11-10T04:43:02.345Z,3.53
2018-11-10T04:45:30.829Z,3.50
2018-11-10T04:47:59.574Z,3.50
2018-11-10T04:50:28.053Z,3.10
2018-11-10T04:52:56.533Z,2.80
2018-11-10T04:55:25.048Z,3.20
2018-11-10T04:57:53.555Z,3.10
2018-11-10T05:00:22.049Z,3.20
2018-11-10T05:02:50.786Z,3.30
2018-11-10T05:05:19.280Z,3.20
2018-11-10T05:07:47.759Z,3.30
2018-11-10T05:10:16.258Z,3.50
2018-11-10T05:12:44.794Z,3.30
2018-11-10T05:15:13.858Z,3.90
2018-11-10T05:17:42.645Z,3.63
2018-11-10T05:20:11.145Z,3.50
2018-11-10T05:22:39.657Z,3.60
2018-11-10T05:25:08.841Z,4.33
2018-11-10T05:27:37.321Z,4.40
2018-11-10T05:30:06.146Z,4.07
2018-11-10T05:32:34.641Z,4.23
2018-11-10T05:35:03.161Z,4.23
2018-11-10T05:37:31.675Z,4.23
2018-11-10T05:40:00.654Z,4.50
2018-11-10T05:42:29.145Z,4.53
2018-11-10T05:44:57.664Z,4.10
2018-11-10T05:47:26.218Z,4.53
2018-11-10T05:49:54.901Z,4.00
2018-11-10T05:52:23.401Z,4.13
2018-11-10T05:54:51.890Z,4.70
2018-11-10T05:57:20.464Z,4.30
2018-11-10T05:59:48.909Z,5.00
2018-11-10T06:02:17.432Z,4.30
2018-11-10T06:04:45.926Z,4.30
2018-11-10T06:07:14.529Z,4.20
2018-11-10T06:09:43.086Z,4.70
2018-11-10T06:12:11.558Z,4.67
2018-11-10T06:14:40.094Z,4.13
2018-11-10T06:17:08.691Z,3.80
2018-11-10T06:19:37.179Z,4.20
2018-11-10T06:22:05.656Z,4.17
2018-11-10T06:24:34.573Z,3.43
2018-11-10T06:27:03.073Z,3.07
2018-11-10T06:29:31.567Z,3.63
2018-11-10T06:32:00.118Z,3.47
2018-11-10T06:34:28.622Z,4.07
2018-11-10T06:36:57.166Z,2.87
2018-11-10T06:39:25.657Z,3.50
2018-11-10T06:41:54.154Z,3.90
2018-11-10T06:44:22.638Z,4.00
2018-11-10T06:46:51.175Z,3.53
2018-11-10T06:49:19.663Z,3.60
2018-11-10T06:51:48.160Z,3.80
2018-11-10T06:54:16.650Z,3.97
2018-11-10T06:56:45.150Z,4.60
2018-11-10T06:59:13.813Z,3.90
2018-11-10T07:01:42.313Z,3.53
2018-11-10T07:04:10.819Z,3.90
2018-11-10T07:06:39.307Z,3.63
2018-11-10T07:09:08.290Z,4.17
2018-11-10T07:11:36.810Z,3.83
2018-11-10T07:14:05.666Z,3.87
2018-11-10T07:16:34.218Z,5.10
2018-11-10T07:19:02.711Z,4.20
2018-11-10T07:21:31.191Z,4.43
2018-11-10T07:23:59.709Z,4.70
2018-11-10T07:26:28.215Z,4.50
2018-11-10T07:28:56.718Z,4.20
2018-11-10T07:31:25.214Z,4.70
2018-11-10T07:33:53.694Z,4.53
2018-11-10T07:36:22.178Z,4.53
2018-11-10T07:38:51.649Z,4.63
2018-11-10T07:41:20.157Z,4.83
2018-11-10T07:43:48.640Z,4.77
2018-11-10T07:46:17.136Z,4.80
2018-11-10T07:48:45.631Z,4.67
2018-11-10T07:51:14.173Z,5.37
2018-11-10T07:53:42.959Z,5.07
2018-11-10T07:56:11.453Z,5.90
2018-11-10T07:58:40.580Z,5.87
2018-11-10T08:01:09.359Z,5.77
2018-11-10T08:03:37.878Z,6.10
2018-11-10T08:06:07.398Z,5.43
2018-11-10T08:08:36.133Z,5.63
2018-11-10T08:11:05.274Z,5.77
2018-11-10T08:13:34.777Z,5.90
2018-11-10T08:16:03.581Z,5.50
2018-11-10T08:18:35.979Z,6.03
2018-11-10T08:21:04.497Z,5.47
2018-11-10T08:23:33.001Z,6.13
2018-11-10T08:26:01.538Z,5.70
2018-11-10T08:28:30.702Z,5.87
2018-11-10T08:31:00.440Z,5.30
2018-11-10T08:33:28.924Z,4.90
2018-11-10T08:35:58.032Z,5.40
2018-11-10T08:38:26.527Z,5.00
2018-11-10T08:40:55.026Z,4.30
2018-11-10T08:43:23.525Z,4.13
2018-11-10T08:45:52.030Z,3.87
2018-11-10T08:48:20.514Z,3.90
2018-11-10T08:50:48.998Z,3.50
2018-11-10T08:53:17.501Z,3.80
2018-11-10T08:55:46.039Z,3.70
2018-11-10T08:58:14.942Z,3.37
2018-11-10T09:00:43.493Z,3.63
2018-11-10T09:03:11.974Z,3.43
2018-11-10T09:05:40.532Z,3.50
2018-11-10T09:08:09.050Z,3.87
2018-11-10T09:10:37.529Z,3.53
2018-11-10T09:13:06.077Z,3.90
2018-11-10T09:15:34.593Z,3.70
2018-11-10T09:18:03.106Z,3.43
2018-11-10T09:20:31.698Z,3.60
2018-11-10T09:23:00.185Z,3.07
2018-11-10T09:25:28.661Z,2.90
2018-11-10T09:27:57.161Z,3.03
2018-11-10T09:30:25.689Z,3.37
2018-11-10T09:32:54.957Z,3.50
2018-11-10T09:35:23.611Z,3.37
2018-11-10T09:37:52.714Z,2.80
2018-11-10T09:40:21.254Z,3.13
2018-11-10T09:42:49.948Z,3.20
2018-11-10T09:45:18.616Z,2.80
2018-11-10T09:47:47.244Z,3.00
2018-11-10T09:50:17.751Z,3.03
2018-11-10T09:52:46.317Z,2.80
2018-11-10T09:55:15.505Z,3.30
2018-11-10T09:57:45.447Z,2.60
2018-11-10T10:00:17.274Z,2.60
2018-11-10T10:02:46.764Z,2.97
2018-11-10T10:05:15.771Z,2.67
2018-11-10T10:07:44.729Z,2.83
2018-11-10T10:10:14.839Z,2.37
2018-11-10T10:12:43.896Z,2.50
2018-11-10T10:15:13.614Z,3.20
2018-11-10T10:17:43.073Z,3.37
2018-11-10T10:20:13.737Z,2.90
2018-11-10T10:22:42.417Z,2.80
2018-11-10T10:25:11.581Z,2.60
2018-11-10T10:27:40.183Z,2.80
2018-11-10T10:30:16.472Z,2.60
2018-11-10T10:32:47.231Z,2.30
2018-11-10T10:35:16.027Z,2.83
2018-11-10T10:37:45.618Z,2.93
2018-11-10T10:40:14.709Z,2.57
2018-11-10T10:42:43.709Z,2.83
2018-11-10T10:45:15.789Z,2.87
2018-11-10T10:47:44.650Z,2.77
2018-11-10T10:50:14.258Z,2.47
2018-11-10T10:52:42.901Z,2.60
2018-11-10T10:55:15.682Z,3.00
2018-11-10T10:57:45.154Z,3.17
2018-11-10T11:00:19.270Z,2.90
2018-11-10T11:02:53.197Z,3.60
2018-11-10T11:05:27.006Z,2.63
2018-11-10T11:07:55.749Z,2.40
2018-11-10T11:10:24.634Z,2.97
2018-11-10T11:12:53.162Z,2.43
2018-11-10T11:15:22.167Z,2.27
2018-11-10T11:17:50.538Z,2.20
2018-11-10T11:20:19.405Z,2.30
2018-11-10T11:22:47.945Z,2.87
2018-11-10T11:25:16.480Z,2.80
2018-11-10T11:27:44.973Z,2.60
2018-11-10T11:30:13.466Z,2.50
2018-11-10T11:32:41.953Z,2.63
2018-11-10T11:35:11.839Z,2.67
2018-11-10T11:37:41.010Z,2.97
2018-11-10T11:40:10.905Z,2.37
2018-11-10T11:42:39.726Z,2.27
2018-11-10T11:45:08.902Z,2.60
2018-11-10T11:47:37.378Z,2.10
2018-11-10T11:50:06.621Z,2.33
2018-11-10T11:52:36.137Z,2.33
2018-11-10T11:55:04.666Z,2.50
2018-11-10T11:57:33.235Z,2.30
2018-11-10T12:00:01.717Z,2.27
2018-11-10T12:02:30.230Z,2.50
2018-11-10T12:04:59.636Z,2.50
2018-11-10T12:07:28.135Z,2.70
2018-11-10T12:09:56.631Z,2.53
2018-11-10T12:12:25.112Z,2.17
2018-11-10T12:14:53.647Z,2.30
2018-11-10T12:17:22.130Z,2.43
2018-11-10T12:19:50.691Z,2.20
2018-11-10T12:22:19.207Z,2.13
2018-11-10T12:24:47.758Z,2.20
2018-11-10T12:27:16.301Z,2.20
2018-11-10T12:29:44.788Z,2.17
2018-11-10T12:32:13.271Z,2.17
2018-11-10T12:34:41.756Z,1.90
2018-11-10T12:37:14.857Z,2.30
2018-11-10T12:39:43.411Z,2.40
2018-11-10T12:42:12.187Z,2.03
2018-11-10T12:44:41.603Z,2.60
2018-11-10T12:47:10.623Z,2.87
2018-11-10T12:49:40.832Z,2.83
2018-11-10T12:52:09.422Z,3.17
2018-11-10T12:54:38.766Z,2.73
2018-11-10T12:57:07.253Z,2.67
2018-11-10T12:59:35.737Z,3.40
2018-11-10T13:02:04.234Z,2.57
2018-11-10T13:04:43.156Z,2.80
2018-11-10T13:07:11.656Z,3.33
2018-11-10T13:09:41.753Z,3.47
2018-11-10T13:12:10.336Z,3.70
2018-11-10T13:14:38.861Z,3.77
2018-11-10T13:17:07.370Z,4.37
2018-11-10T13:19:35.925Z,3.90
2018-11-10T13:22:04.438Z,5.17
2018-11-10T13:24:32.942Z,4.17
2018-11-10T13:27:01.494Z,4.73
2018-11-10T13:29:30.006Z,4.90
2018-11-10T13:31:58.502Z,5.10
2018-11-10T13:34:27.034Z,5.07
2018-11-10T13:36:55.553Z,6.00
2018-11-10T13:39:24.102Z,6.20
2018-11-10T13:41:52.869Z,6.57
2018-11-10T13:44:21.542Z,5.33
2018-11-10T13:46:50.085Z,5.10
2018-11-10T13:49:18.693Z,5.63
2018-11-10T13:51:47.449Z,5.43
2018-11-10T13:54:15.759Z,6.42
2018-11-10T13:56:44.269Z,5.03
2018-11-10T13:59:12.824Z,4.57
2018-11-10T14:01:43.846Z,3.20
2018-11-10T14:04:12.385Z,3.03
2018-11-10T14:06:40.934Z,2.10
2018-11-10T14:09:10.723Z,2.17
2018-11-10T14:11:39.217Z,1.67
2018-11-10T14:14:08.178Z,2.70
2018-11-10T14:16:36.840Z,3.63
2018-11-10T14:19:05.515Z,4.10
2018-11-10T14:21:34.022Z,5.43
2018-11-10T14:24:02.519Z,5.07
2018-11-10T14:26:31.668Z,5.63
2018-11-10T14:29:00.158Z,6.13
2018-11-10T14:31:28.674Z,6.00
2018-11-10T14:33:57.185Z,5.93
2018-11-10T14:36:25.706Z,6.90
2018-11-10T14:38:54.198Z,5.37
2018-11-10T14:41:22.873Z,5.67
2018-11-10T14:43:51.367Z,4.90
2018-11-10T14:46:19.929Z,5.47
2018-11-10T14:48:48.449Z,5.43
2018-11-10T14:51:16.954Z,5.43
2018-11-10T14:53:45.464Z,4.90
2018-11-10T14:56:13.957Z,4.53
2018-11-10T14:58:42.605Z,4.70
2018-11-10T15:01:10.971Z,5.20
2018-11-10T15:03:39.876Z,5.53
2018-11-10T15:06:08.399Z,5.00
2018-11-10T15:08:37.205Z,5.10
2018-11-10T15:11:06.415Z,5.30
2018-11-10T15:13:35.327Z,5.40
2018-11-10T15:16:03.869Z,4.63
2018-11-10T15:18:32.463Z,4.80
2018-11-10T15:21:01.020Z,3.13
2018-11-10T15:23:29.522Z,3.60
2018-11-10T15:25:58.239Z,3.73
2018-11-10T15:28:26.735Z,3.30
2018-11-10T15:30:55.267Z,3.10
2018-11-10T15:33:23.845Z,3.20
2018-11-10T15:35:52.326Z,3.17
2018-11-10T15:38:20.811Z,3.63
2018-11-10T15:40:49.298Z,3.90
2018-11-10T15:43:17.803Z,3.70
2018-11-10T15:45:46.348Z,3.90
2018-11-10T15:48:14.937Z,3.40
2018-11-10T15:50:43.434Z,3.40
2018-11-10T15:53:12.005Z,3.07
2018-11-10T15:55:40.678Z,3.23
2018-11-10T15:58:09.177Z,3.10
2018-11-10T16:00:37.722Z,3.37
2018-11-10T16:03:06.246Z,3.53
2018-11-10T16:05:34.724Z,3.80
2018-11-10T16:08:03.222Z,3.43
2018-11-10T16:10:31.738Z,4.57
2018-11-10T16:13:00.213Z,4.90
2018-11-10T16:15:28.721Z,5.20
2018-11-10T16:17:57.231Z,5.50
2018-11-10T16:20:25.987Z,6.17
2018-11-10T16:22:54.506Z,5.37
2018-11-10T16:25:23.866Z,5.70
2018-11-10T16:27:52.389Z,5.50
2018-11-10T16:30:20.951Z,5.67
2018-11-10T16:32:49.966Z,5.70
2018-11-10T16:35:18.462Z,5.80
2018-11-10T16:37:46.955Z,5.23
2018-11-10T16:40:16.813Z,5.90
2018-11-10T16:42:46.117Z,5.60
2018-11-10T16:45:15.287Z,4.87
2018-11-10T16:47:43.842Z,5.57
2018-11-10T16:50:12.325Z,4.80
2018-11-10T16:52:42.630Z,5.13
2018-11-10T16:55:11.186Z,4.73
2018-11-10T16:57:40.073Z,4.40
2018-11-10T17:00:09.473Z,4.53
2018-11-10T17:02:38.265Z,4.00
2018-11-10T17:05:08.824Z,3.80
2018-11-10T17:07:38.651Z,4.10
2018-11-10T17:10:08.090Z,3.03
2018-11-10T17:12:37.369Z,2.60
2018-11-10T17:15:06.128Z,2.73
2018-11-10T17:17:34.593Z,2.60
2018-11-10T17:20:03.082Z,3.20
2018-11-10T17:22:32.576Z,3.37
2018-11-10T17:25:01.129Z,3.30
2018-11-10T17:27:29.603Z,4.70
2018-11-10T17:29:58.109Z,5.63
2018-11-10T17:32:27.277Z,6.10
2018-11-10T17:34:55.836Z,6.20
2018-11-10T17:37:24.342Z,6.03
2018-11-10T17:39:52.951Z,6.53
2018-11-10T17:42:22.398Z,6.20
2018-11-10T17:44:51.009Z,6.00
2018-11-10T17:47:20.047Z,6.90
2018-11-10T17:49:48.566Z,7.20
2018-11-10T17:52:17.115Z,7.03
2018-11-10T17:54:45.687Z,8.00
2018-11-10T17:57:14.161Z,7.13
2018-11-10T17:59:42.670Z,6.20
2018-11-10T18:02:11.451Z,6.23
2018-11-10T18:04:40.062Z,6.13
2018-11-10T18:07:08.830Z,5.50
2018-11-10T18:09:37.310Z,6.53
2018-11-10T18:12:06.173Z,6.10
2018-11-10T18:14:34.963Z,7.03
2018-11-10T18:17:04.642Z,8.17
2018-11-10T18:19:33.162Z,8.03
2018-11-10T18:22:01.659Z,8.13
2018-11-10T18:24:30.447Z,7.63
2018-11-10T18:26:59.206Z,6.93
2018-11-10T18:29:27.698Z,6.43
2018-11-10T18:31:56.538Z,6.33
2018-11-10T18:34:25.038Z,7.00
2018-11-10T18:36:53.575Z,6.30
2018-11-10T18:39:22.185Z,5.90
2018-11-10T18:41:50.653Z,6.27
2018-11-10T18:44:19.146Z,6.60
2018-11-10T18:46:47.717Z,5.97
2018-11-10T18:49:16.232Z,6.43
2018-11-10T18:51:44.730Z,5.90
2018-11-10T18:54:13.221Z,6.10
2018-11-10T18:56:41.745Z,5.83
2018-11-10T18:59:10.231Z,6.20
2018-11-10T19:01:38.806Z,6.33
2018-11-10T19:04:07.394Z,6.20
2018-11-10T19:06:35.869Z,6.13
2018-11-10T19:09:07.627Z,6.20
2018-11-10T19:11:39.352Z,5.93
2018-11-10T19:14:08.454Z,5.63
2018-11-10T19:16:37.017Z,5.47
2018-11-10T19:19:05.608Z,5.60
2018-11-10T19:21:34.094Z,5.33
2018-11-10T19:24:03.553Z,5.83
2018-11-10T19:26:34.911Z,6.20
2018-11-10T19:29:03.412Z,5.50
2018-11-10T19:31:31.916Z,5.20
2018-11-10T19:34:00.407Z,5.60
2018-11-10T19:36:31.318Z,8.13
2018-11-10T19:39:11.478Z,5.20
2018-11-10T19:41:40.180Z,6.03
2018-11-10T19:44:09.163Z,4.90
2018-11-10T19:46:38.909Z,4.60
2018-11-10T19:49:13.238Z,4.20
2018-11-10T19:51:44.189Z,3.70
2018-11-10T19:54:12.484Z,4.00
2018-11-10T19:56:42.542Z,4.53
2018-11-10T19:59:11.058Z,3.93
2018-11-10T20:01:39.562Z,4.37
2018-11-10T20:04:09.021Z,4.67
2018-11-10T20:06:37.556Z,5.10
2018-11-10T20:09:08.078Z,3.97
2018-11-10T20:11:36.589Z,5.13
2018-11-10T20:14:05.091Z,4.67
2018-11-10T20:16:34.223Z,4.07
2018-11-10T20:19:05.008Z,5.45
2018-11-10T20:21:34.088Z,4.40
2018-11-10T20:24:07.556Z,4.20
2018-11-10T20:26:38.884Z,4.40
2018-11-10T20:29:09.358Z,4.77
2018-11-10T20:31:38.573Z,4.30
2018-11-10T20:34:07.608Z,3.67
2018-11-10T20:36:36.389Z,3.80
2018-11-10T20:39:06.924Z,3.73
2018-11-10T20:41:36.197Z,3.97
2018-11-10T20:44:05.403Z,3.60
2018-11-10T20:46:34.684Z,3.77
2018-11-10T20:49:03.748Z,3.37
2018-11-10T20:51:32.922Z,3.20
2018-11-10T20:54:02.048Z,3.53
2018-11-10T20:56:30.996Z,3.23
2018-11-10T20:59:08.179Z,2.80
2018-11-10T21:01:45.985Z,2.90
2018-11-10T21:04:21.963Z,2.77
2018-11-10T21:06:50.957Z,2.53
2018-11-10T21:09:19.508Z,2.87
2018-11-10T21:11:48.133Z,2.27
2018-11-10T21:16:55.463Z,2.70
2018-11-10T21:19:26.256Z,2.60
2018-11-10T21:21:57.054Z,2.60
2018-11-10T21:24:29.373Z,2.37
2018-11-10T21:26:59.780Z,2.60
2018-11-10T21:29:30.073Z,2.43
2018-11-10T21:31:59.070Z,2.47
2018-11-10T21:34:27.561Z,3.10
2018-11-10T21:36:56.079Z,2.93
2018-11-10T21:39:24.597Z,3.23
2018-11-10T21:41:53.126Z,3.73
2018-11-10T21:44:22.470Z,3.70
2018-11-10T21:46:54.109Z,3.97
2018-11-10T21:49:24.774Z,3.77
2018-11-10T21:51:53.588Z,3.30
2018-11-10T21:54:22.110Z,3.60
2018-11-10T21:56:50.628Z,3.77
2018-11-10T21:59:19.122Z,3.07
2018-11-10T22:01:48.353Z,3.30
2018-11-10T22:04:17.321Z,3.63
2018-11-10T22:06:47.332Z,3.40
2018-11-10T22:09:16.002Z,3.27
2018-11-10T22:11:44.710Z,3.80
2018-11-10T22:14:13.298Z,3.73
2018-11-10T22:16:47.990Z,3.43
2018-11-10T22:19:17.229Z,4.00
2018-11-10T22:21:45.725Z,3.97
2018-11-10T22:24:14.217Z,3.87
2018-11-10T22:26:42.766Z,3.20
2018-11-10T22:29:11.318Z,3.47
2018-11-10T22:31:39.806Z,3.63
2018-11-10T22:34:09.573Z,4.30
2018-11-10T22:42:35.265Z,3.73
2018-11-10T22:45:03.784Z,3.83
2018-11-10T22:47:32.321Z,3.77
2018-11-10T22:50:00.878Z,4.07
2018-11-10T22:52:32.533Z,4.30
2018-11-10T22:57:35.394Z,4.73
2018-11-10T23:00:08.650Z,5.13
2018-11-10T23:02:38.986Z,5.90
2018-11-10T23:05:07.564Z,5.73
2018-11-10T23:07:44.498Z,6.23
2018-11-10T23:10:22.552Z,5.97
2018-11-10T23:12:55.053Z,5.57
2018-11-10T23:15:26.909Z,5.93
2018-11-10T23:17:56.843Z,6.27
2018-11-10T23:20:25.369Z,6.30
2018-11-10T23:22:53.991Z,5.93
2018-11-10T23:25:23.880Z,6.17
2018-11-10T23:30:31.902Z,6.23
2018-11-10T23:33:01.451Z,6.50
2018-11-10T23:35:29.934Z,6.20
2018-11-10T23:37:59.282Z,6.23
2018-11-10T23:40:28.281Z,6.10
2018-11-10T23:42:56.942Z,5.80
2018-11-10T23:45:25.934Z,5.70
2018-11-10T23:48:12.130Z,6.70
2018-11-10T23:50:46.110Z,5.93
2018-11-10T23:53:15.438Z,6.07
2018-11-10T23:55:43.961Z,6.33
2018-11-10T23:58:22.614Z,5.53
